Time;durP1;ratioP1;P1;durP2;ratioP2;P2;SDS_P1;SDS_P2;PMS_P1;PMS_P2;Temp;Humidity;BMP_temperature;BMP_pressure;BME280_temperature;BME280_humidity;BME280_pressure;Samples;Min_cycle;Max_cycle;Signal;HPM_P1;HPM_P2
2024/01/20 00:00:39;;;;;;;12.70;6.75;;;-4.20;57.40;;;-9.91;100.00;96294.16;4928594;29;20037;-54
2024/01/20 00:03:05;;;;;;;13.00;6.35;;;-4.20;57.50;;;-10.00;100.00;96287.97;4936714;29;20027;-55
2024/01/20 00:05:31;;;;;;;12.23;6.57;;;-4.20;57.40;;;-10.09;100.00;96296.41;4934580;28;20022;-55
2024/01/20 00:07:57;;;;;;;13.32;5.63;;;-4.20;57.40;;;-10.19;100.00;96295.50;4922416;29;20467;-54
2024/01/20 00:10:22;;;;;;;14.32;6.30;;;-4.30;57.30;;;-10.20;100.00;96293.88;4930373;28;20487;-55
2024/01/20 00:12:49;;;;;;;11.57;6.03;;;-4.30;57.30;;;-10.29;100.00;96292.88;4930867;29;20035;-53
2024/01/20 00:15:15;;;;;;;11.00;5.47;;;-4.40;57.20;;;-10.30;100.00;96301.53;4942998;28;20027;-55
2024/01/20 00:17:41;;;;;;;11.30;5.75;;;-4.40;57.30;;;-10.20;100.00;96299.84;4930068;29;20026;-57
2024/01/20 00:20:08;;;;;;;10.35;5.75;;;-4.40;57.40;;;-10.27;100.00;96296.16;4939685;29;20092;-57
2024/01/20 00:22:34;;;;;;;11.20;5.68;;;-4.40;57.50;;;-10.34;100.00;96302.69;4925515;29;20023;-56
2024/01/20 00:25:02;;;;;;;13.85;6.85;;;-4.40;57.40;;;-10.33;100.00;96288.88;4932006;29;20030;-55
2024/01/20 00:27:30;;;;;;;30.95;7.20;;;-4.50;57.40;;;-10.16;100.00;96295.28;4933412;29;20753;-55
2024/01/20 00:29:56;;;;;;;15.05;7.00;;;-4.50;57.50;;;-9.99;100.00;96289.63;4935824;28;20058;-55
2024/01/20 00:32:22;;;;;;;15.85;7.28;;;-4.50;57.80;;;-9.73;100.00;96290.13;4929233;29;20121;-57
2024/01/20 00:34:48;;;;;;;16.00;8.07;;;-4.40;58.00;;;-9.43;100.00;96288.63;4933236;28;20019;-56
2024/01/20 00:37:14;;;;;;;14.27;7.32;;;-4.40;58.30;;;-9.22;100.00;96284.28;4930275;29;20019;-57
2024/01/20 00:39:39;;;;;;;18.33;6.55;;;-4.20;58.70;;;-9.14;100.00;96279.34;4933874;28;20086;-55
2024/01/20 00:42:05;;;;;;;16.33;7.05;;;-4.10;58.90;;;-9.17;100.00;96276.19;4939650;28;20112;-53
2024/01/20 00:44:31;;;;;;;12.15;6.57;;;-4.00;58.80;;;-9.10;100.00;96279.91;4932669;28;20366;-56
2024/01/20 00:46:57;;;;;;;21.58;9.55;;;-3.90;58.80;;;-9.03;100.00;96287.94;4936239;28;20032;-57
2024/01/20 00:49:23;;;;;;;10.38;5.78;;;-3.80;58.90;;;-9.24;100.00;96282.78;4942056;28;20437;-57
2024/01/20 00:51:49;;;;;;;14.20;6.38;;;-3.80;58.70;;;-9.37;100.00;96283.81;4933710;28;20082;-53
2024/01/20 00:54:15;;;;;;;15.02;7.38;;;-3.80;58.40;;;-9.11;100.00;96280.84;4930664;28;20037;-57
2024/01/20 00:56:40;;;;;;;14.65;6.63;;;-3.70;58.50;;;-8.69;100.00;96270.47;4922434;28;20063;-56
2024/01/20 00:59:06;;;;;;;14.75;7.70;;;-3.60;58.90;;;-8.42;100.00;96268.16;4941262;28;20026;-57
2024/01/20 01:01:32;;;;;;;13.38;7.32;;;-3.60;59.20;;;-8.25;100.00;96269.25;4928313;28;20015;-56
2024/01/20 01:03:58;;;;;;;15.70;7.47;;;-3.40;59.50;;;-8.21;100.00;96265.47;4934625;28;20109;-54
2024/01/20 01:06:24;;;;;;;13.40;7.40;;;-3.30;59.50;;;-8.22;100.00;96271.59;4922419;28;20088;-56
2024/01/20 01:08:50;;;;;;;14.82;6.35;;;-3.20;59.40;;;-8.31;100.00;96268.97;4929107;28;20040;-54
2024/01/20 01:11:16;;;;;;;15.00;7.05;;;-3.10;59.20;;;-8.50;100.00;96267.16;4932097;28;20057;-56
2024/01/20 01:13:42;;;;;;;14.52;6.90;;;-3.10;58.90;;;-8.59;100.00;96262.78;4928960;28;20062;-57
2024/01/20 01:16:08;;;;;;;14.77;6.80;;;-3.10;58.60;;;-8.75;100.00;96271.81;4934798;28;20038;-53
2024/01/20 01:18:34;;;;;;;13.07;6.50;;;-3.10;58.40;;;-8.97;100.00;96277.94;4928043;28;20046;-54
2024/01/20 01:20:59;;;;;;;10.80;6.22;;;-3.10;58.20;;;-9.20;100.00;96279.03;4932361;28;20050;-56
2024/01/20 01:23:25;;;;;;;11.40;6.13;;;-3.20;57.90;;;-9.43;100.00;96288.63;4931868;28;20031;-57
2024/01/20 01:25:53;;;;;;;15.07;7.30;;;-3.30;57.70;;;-9.65;100.00;96292.94;4931169;28;20097;-57
2024/01/20 01:28:20;;;;;;;13.63;7.18;;;-3.50;57.40;;;-9.76;100.00;96295.53;4929383;28;20038;-54
2024/01/20 01:30:48;;;;;;;11.93;7.55;;;-3.60;57.40;;;-9.83;100.00;96297.78;4929591;28;20124;-55
2024/01/20 01:33:14;;;;;;;15.63;7.45;;;-3.70;57.50;;;-9.81;100.00;96290.75;4926132;28;20436;-52
2024/01/20 01:35:40;;;;;;;16.27;8.63;;;-3.80;57.60;;;-9.75;100.00;96299.75;4929043;28;20090;-57
2024/01/20 01:38:06;;;;;;;16.33;8.73;;;-3.90;57.80;;;-9.74;100.00;96296.25;4938656;28;20521;-52
2024/01/20 01:40:32;;;;;;;17.65;9.48;;;-3.90;58.00;;;-9.70;100.00;96296.81;4923245;28;20055;-53
2024/01/20 01:42:59;;;;;;;16.63;9.00;;;-4.00;58.10;;;-9.64;100.00;96298.91;4937816;28;20493;-56
2024/01/20 01:45:25;;;;;;;15.90;8.70;;;-4.00;58.30;;;-9.61;100.00;96298.66;4932914;28;20501;-55
2024/01/20 01:47:55;;;;;;;21.52;10.52;;;-4.00;58.40;;;-9.55;100.00;96280.94;4933950;28;20031;-57
2024/01/20 01:50:22;;;;;;;19.02;8.55;;;-4.00;58.80;;;-9.53;100.00;96280.81;4926925;28;20103;-54
2024/01/20 01:52:52;;;;;;;13.90;7.68;;;-4.00;58.80;;;-9.63;100.00;96275.56;4925294;29;20129;-49
2024/01/20 01:55:18;;;;;;;16.88;8.30;;;-3.90;58.80;;;-9.61;100.00;96271.13;4925664;29;20027;-57
2024/01/20 01:57:47;;;;;;;15.10;7.22;;;-3.90;58.70;;;-9.74;100.00;96265.31;4922061;29;20573;-57
2024/01/20 02:00:13;;;;;;;16.65;7.40;;;-4.00;58.60;;;-9.79;100.00;96275.16;4928111;28;20033;-57
2024/01/20 02:02:39;;;;;;;12.02;7.28;;;-4.00;58.40;;;-9.87;100.00;96273.19;4927667;29;20031;-53
2024/01/20 02:05:05;;;;;;;16.55;7.53;;;-4.10;58.20;;;-9.94;100.00;96282.34;4925752;29;20051;-56
2024/01/20 02:07:34;;;;;;;16.25;7.47;;;-4.10;58.20;;;-10.01;100.00;96284.59;4925843;29;20110;-54
2024/01/20 02:09:59;;;;;;;16.63;7.88;;;-4.20;58.20;;;-10.12;100.00;96281.19;4916871;29;20039;-54
2024/01/20 02:12:27;;;;;;;19.90;8.73;;;-4.20;58.20;;;-10.14;100.00;96283.09;4925625;29;20105;-57
2024/01/20 02:14:54;;;;;;;15.70;8.10;;;-4.20;58.20;;;-10.18;100.00;96290.25;4919383;29;20544;-53
2024/01/20 02:17:20;;;;;;;17.13;8.10;;;-4.30;58.10;;;-10.20;100.00;96286.16;4921152;29;20098;-56
2024/01/20 02:19:45;;;;;;;14.98;8.15;;;-4.30;58.20;;;-10.18;100.00;96291.97;4924886;29;20027;-57
2024/01/20 02:22:16;;;;;;;21.15;8.73;;;-4.30;58.20;;;-10.19;100.00;96280.06;4924433;29;20027;-53
2024/01/20 02:24:49;;;;;;;18.40;9.02;;;-4.40;58.20;;;-10.22;100.00;96278.53;4923787;29;20538;-55
2024/01/20 02:27:18;;;;;;;16.85;8.68;;;-4.40;58.40;;;-10.15;100.00;96271.97;4926283;28;20034;-53
2024/01/20 02:29:44;;;;;;;33.90;13.07;;;-4.40;58.60;;;-9.98;100.00;96274.97;4925861;29;20152;-52
2024/01/20 02:32:10;;;;;;;38.15;17.08;;;-4.40;59.40;;;-9.59;100.00;96278.72;4923645;29;20519;-57
2024/01/20 02:34:39;;;;;;;45.80;17.58;;;-4.20;59.40;;;-8.98;100.00;96278.06;4924882;29;20089;-57
2024/01/20 02:37:07;;;;;;;32.33;15.25;;;-4.10;60.10;;;-8.62;100.00;96287.09;4924307;29;20027;-54
2024/01/20 02:39:34;;;;;;;32.72;14.52;;;-3.90;60.70;;;-8.43;100.00;96299.28;4923267;29;20023;-56
2024/01/20 02:42:00;;;;;;;36.33;16.75;;;-3.70;61.10;;;-8.38;100.00;96299.72;4926968;29;20089;-53
2024/01/20 02:44:25;;;;;;;38.03;16.95;;;-3.50;61.20;;;-8.30;100.00;96304.19;4917764;29;20032;-53
2024/01/20 02:46:52;;;;;;;40.65;17.35;;;-3.30;61.20;;;-8.24;100.00;96301.94;4925025;29;20024;-56
2024/01/20 02:49:19;;;;;;;36.00;16.08;;;-3.20;61.30;;;-8.13;100.00;96305.38;4930799;29;20454;-56
2024/01/20 02:51:45;;;;;;;45.60;16.80;;;-3.00;61.40;;;-8.04;100.00;96310.56;4930264;28;20044;-54
2024/01/20 02:54:10;;;;;;;46.80;17.08;;;-2.90;61.30;;;-7.95;100.00;96311.53;4928877;29;20034;-55
2024/01/20 02:56:36;;;;;;;46.50;17.52;;;-2.70;61.30;;;-7.87;100.00;96316.03;4927027;29;20498;-55
2024/01/20 02:59:02;;;;;;;42.13;15.48;;;-2.60;61.30;;;-7.82;100.00;96317.28;4927502;29;20070;-52
2024/01/20 03:01:28;;;;;;;61.00;17.33;;;-2.50;61.20;;;-7.72;100.00;96322.47;4924576;29;20027;-54
2024/01/20 03:03:54;;;;;;;33.22;15.30;;;-2.40;61.20;;;-7.67;100.00;96320.31;4927624;29;20024;-56
2024/01/20 03:06:20;;;;;;;32.17;15.27;;;-2.30;61.10;;;-7.61;100.00;96321.56;4924220;29;20031;-57
2024/01/20 03:08:45;;;;;;;33.58;14.65;;;-2.20;61.20;;;-7.60;100.00;96323.19;4924104;29;20222;-57
2024/01/20 03:11:11;;;;;;;32.03;14.32;;;-2.10;61.10;;;-7.57;100.00;96328.91;4929964;29;20038;-55
2024/01/20 03:13:37;;;;;;;36.47;14.18;;;-2.10;61.20;;;-7.50;100.00;96330.00;4924693;29;20031;-52
2024/01/20 03:16:03;;;;;;;37.97;17.08;;;-2.00;61.30;;;-7.35;100.00;96325.25;4928728;29;20019;-57
2024/01/20 03:18:29;;;;;;;40.22;17.35;;;-2.00;61.30;;;-7.25;100.00;96322.66;4921886;29;20027;-56
2024/01/20 03:20:55;;;;;;;39.33;17.10;;;-1.90;61.40;;;-7.18;100.00;96325.53;4922070;29;20510;-56
2024/01/20 03:23:21;;;;;;;38.13;16.88;;;-1.80;61.40;;;-7.11;100.00;96334.38;4930061;29;20035;-56
2024/01/20 03:25:46;;;;;;;39.05;15.02;;;-1.70;61.50;;;-7.16;100.00;96332.22;4924334;29;20023;-58
2024/01/20 03:28:12;;;;;;;36.75;16.05;;;-1.60;62.40;;;-7.02;100.00;96339.59;4927814;29;20031;-56
2024/01/20 03:30:38;;;;;;;36.67;15.98;;;-1.60;61.50;;;-6.92;100.00;96346.53;4924275;29;20701;-54
2024/01/20 03:33:04;;;;;;;41.50;17.63;;;-1.50;61.60;;;-6.85;100.00;96351.00;4929909;29;20034;-55
2024/01/20 03:35:30;;;;;;;38.92;16.65;;;-1.40;61.70;;;-6.81;100.00;96339.41;4924060;29;20046;-55
2024/01/20 03:37:55;;;;;;;40.28;19.42;;;-1.30;61.70;;;-6.80;100.00;96345.41;4925488;29;20583;-52
2024/01/20 03:40:21;;;;;;;37.38;17.58;;;-1.30;61.80;;;-6.72;100.00;96345.53;4924101;29;20030;-53
2024/01/20 03:42:47;;;;;;;38.47;16.73;;;-1.20;62.00;;;-6.64;100.00;96345.69;4927628;29;20469;-53
2024/01/20 03:45:13;;;;;;;43.53;17.40;;;-1.20;61.90;;;-6.56;100.00;96344.97;4938698;28;20051;-58
2024/01/20 03:47:39;;;;;;;37.00;15.13;;;-1.10;62.00;;;-6.60;100.00;96348.81;4922979;28;20368;-56
2024/01/20 03:50:06;;;;;;;54.63;19.95;;;-1.10;61.90;;;-6.52;100.00;96352.34;4926981;29;20038;-57
2024/01/20 03:52:32;;;;;;;33.65;16.02;;;-1.00;62.00;;;-6.53;100.00;96357.66;4922671;29;20055;-58
2024/01/20 03:54:58;;;;;;;39.95;19.15;;;-1.00;62.00;;;-6.43;100.00;96361.03;4926481;29;20053;-53
2024/01/20 03:57:23;;;;;;;43.40;18.38;;;-1.00;62.00;;;-6.42;100.00;96359.28;4921257;29;20024;-56
2024/01/20 03:59:49;;;;;;;42.78;18.83;;;-0.90;62.10;;;-6.36;100.00;96348.31;4925223;29;20038;-57
2024/01/20 04:02:15;;;;;;;39.25;17.30;;;-0.90;62.10;;;-6.31;100.00;96354.72;4925082;29;20039;-57
2024/01/20 04:04:41;;;;;;;43.15;18.55;;;-0.80;62.10;;;-6.32;100.00;96350.50;4924094;29;20019;-56
2024/01/20 04:07:07;;;;;;;42.15;18.60;;;-0.80;62.10;;;-6.22;100.00;96354.84;4926392;29;20435;-57
2024/01/20 04:09:33;;;;;;;42.55;19.52;;;-0.70;62.20;;;-6.18;100.00;96364.78;4921176;29;20538;-56
2024/01/20 04:11:59;;;;;;;32.15;16.05;;;-0.70;62.10;;;-6.24;100.00;96359.34;4924178;29;20054;-54
2024/01/20 04:14:25;;;;;;;32.35;15.90;;;-0.70;62.10;;;-6.33;100.00;96351.47;4920790;29;20367;-53
2024/01/20 04:16:50;;;;;;;34.35;16.65;;;-0.60;62.20;;;-6.31;100.00;96348.72;4924518;29;20038;-52
2024/01/20 04:19:16;;;;;;;32.63;17.33;;;-0.60;62.20;;;-6.29;100.00;96350.22;4926546;29;20030;-56
2024/01/20 04:21:43;;;;;;;34.03;17.40;;;-0.60;62.30;;;-6.28;100.00;96354.44;4931392;29;20026;-55
2024/01/20 04:24:09;;;;;;;32.80;16.98;;;-0.60;62.20;;;-6.17;100.00;96360.41;4925439;29;20039;-54
2024/01/20 04:26:36;;;;;;;32.53;16.52;;;-0.60;62.20;;;-6.14;100.00;96358.38;4925849;29;20031;-52
2024/01/20 04:29:01;;;;;;;37.92;17.00;;;-0.60;62.20;;;-6.15;100.00;96368.88;4924605;29;20564;-57
2024/01/20 04:31:27;;;;;;;32.97;15.70;;;-0.50;62.40;;;-6.16;100.00;96362.88;4925458;29;20031;-51
2024/01/20 04:33:53;;;;;;;36.20;17.45;;;-0.50;62.30;;;-6.14;100.00;96358.38;4930130;29;20059;-56
2024/01/20 04:36:20;;;;;;;30.13;15.88;;;-0.50;62.30;;;-6.12;100.00;96369.41;4924742;29;20027;-56
2024/01/20 04:38:46;;;;;;;26.10;14.90;;;-0.50;62.20;;;-6.24;100.00;96365.34;4925864;29;20032;-56
2024/01/20 04:41:11;;;;;;;32.55;15.43;;;-0.50;62.30;;;-6.20;100.00;96379.69;4935263;28;20394;-53
2024/01/20 04:43:37;;;;;;;28.55;14.90;;;-0.50;62.20;;;-6.23;100.00;96377.38;4927573;28;20023;-51
2024/01/20 04:46:04;;;;;;;30.98;14.77;;;-0.50;62.20;;;-6.23;100.00;96382.56;4929602;29;20122;-55
2024/01/20 04:48:31;;;;;;;30.73;15.43;;;-0.50;62.30;;;-6.16;100.00;96388.00;4926224;29;20074;-51
2024/01/20 04:50:57;;;;;;;27.00;14.95;;;-0.50;62.20;;;-6.15;100.00;96392.22;4933183;28;20458;-58
2024/01/20 04:53:23;;;;;;;30.63;15.48;;;-0.50;62.20;;;-6.12;100.00;96394.53;4927010;29;20074;-57
2024/01/20 04:55:49;;;;;;;31.15;14.70;;;-0.50;62.30;;;-6.15;100.00;96394.81;4927023;29;20070;-53
2024/01/20 04:58:15;;;;;;;24.63;13.82;;;-0.50;62.30;;;-6.07;100.00;96403.53;4934193;29;20177;-55
2024/01/20 05:00:41;;;;;;;25.17;13.45;;;-0.50;62.20;;;-6.04;100.00;96405.03;4924494;29;20110;-54
2024/01/20 05:03:07;;;;;;;25.15;13.73;;;-0.40;62.30;;;-6.04;100.00;96402.44;4929269;29;20383;-52
2024/01/20 05:05:33;;;;;;;29.63;14.10;;;-0.40;62.30;;;-5.98;100.00;96401.88;4922909;29;20110;-52
2024/01/20 05:07:59;;;;;;;24.40;13.18;;;-0.40;62.30;;;-5.99;100.00;96412.38;4927741;29;20023;-55
2024/01/20 05:10:25;;;;;;;21.95;10.77;;;-0.40;62.30;;;-6.17;100.00;96412.28;4922901;29;20047;-56
2024/01/20 05:12:51;;;;;;;26.50;13.05;;;-0.30;62.30;;;-6.10;100.00;96411.59;4926620;29;20027;-55
2024/01/20 05:15:17;;;;;;;25.20;12.48;;;-0.40;62.20;;;-6.16;100.00;96413.94;4927309;29;20494;-52
2024/01/20 05:17:42;;;;;;;21.33;12.10;;;-0.40;62.20;;;-6.12;100.00;96418.69;4926572;29;20055;-54
2024/01/20 05:20:14;;;;;;;21.35;12.40;;;-0.40;62.20;;;-6.10;100.00;96416.78;4926815;28;20034;-53
2024/01/20 05:22:39;;;;;;;24.10;12.57;;;-0.40;62.30;;;-6.10;100.00;96413.38;4922727;28;20086;-54
2024/01/20 05:25:06;;;;;;;23.52;13.63;;;-0.40;62.30;;;-6.13;100.00;96414.47;4927533;29;20039;-53
2024/01/20 05:27:32;;;;;;;20.85;12.75;;;-0.40;62.30;;;-6.19;100.00;96409.84;4927334;29;20035;-53
2024/01/20 05:29:57;;;;;;;21.33;12.13;;;-0.40;62.40;;;-6.14;100.00;96406.81;4925886;29;20081;-57
2024/01/20 05:32:23;;;;;;;26.58;11.85;;;-0.40;62.30;;;-6.29;100.00;96399.50;4924952;29;20377;-55
2024/01/20 05:34:49;;;;;;;23.77;12.32;;;-0.40;62.30;;;-6.24;100.00;96393.06;4925198;29;20046;-54
2024/01/20 05:37:15;;;;;;;25.73;13.38;;;-0.50;62.30;;;-6.21;100.00;96388.41;4922030;29;20023;-55
2024/01/20 05:39:41;;;;;;;23.42;12.38;;;-0.50;62.30;;;-6.20;100.00;96402.22;4925414;29;20031;-57
2024/01/20 05:42:07;;;;;;;25.73;13.20;;;-0.50;62.30;;;-6.25;100.00;96409.59;4929236;29;20024;-53
2024/01/20 05:44:33;;;;;;;25.23;12.55;;;-0.60;62.30;;;-6.23;100.00;96411.09;4921772;28;20028;-56
2024/01/20 05:46:59;;;;;;;21.65;12.00;;;-0.60;62.30;;;-6.23;100.00;96410.28;4928281;28;20475;-53
2024/01/20 05:49:24;;;;;;;28.38;11.93;;;-0.60;62.30;;;-6.30;100.00;96404.81;4918828;28;20051;-51
2024/01/20 05:51:50;;;;;;;23.92;12.25;;;-0.60;62.30;;;-6.28;100.00;96408.91;4927304;28;20085;-56
2024/01/20 05:54:16;;;;;;;23.85;12.43;;;-0.60;62.30;;;-6.33;100.00;96412.88;4917792;29;20038;-54
2024/01/20 05:56:42;;;;;;;19.65;11.32;;;-0.60;62.40;;;-6.37;100.00;96421.88;4922871;29;20421;-53
2024/01/20 05:59:08;;;;;;;21.63;11.60;;;-0.70;62.30;;;-6.36;100.00;96428.69;4930026;29;21182;-56
2024/01/20 06:01:34;;;;;;;18.67;10.65;;;-0.70;62.30;;;-6.31;100.00;96437.69;4920734;29;20032;-56
2024/01/20 06:04:00;;;;;;;17.90;10.77;;;-0.70;62.30;;;-6.36;100.00;96433.88;4927082;29;20030;-55
2024/01/20 06:06:25;;;;;;;19.55;11.07;;;-0.70;62.40;;;-6.37;100.00;96448.63;4921019;29;20031;-53
2024/01/20 06:08:51;;;;;;;22.27;12.05;;;-0.70;62.40;;;-6.32;100.00;96456.00;4927540;29;20065;-53
2024/01/20 06:11:17;;;;;;;20.42;11.60;;;-0.70;62.30;;;-6.27;100.00;96453.81;4927080;29;20037;-56
2024/01/20 06:13:43;;;;;;;22.35;11.68;;;-0.70;62.30;;;-6.25;100.00;96466.63;4928713;29;20497;-52
2024/01/20 06:16:12;;;;;;;18.27;10.90;;;-0.60;62.40;;;-6.24;100.00;96469.09;4921926;29;20026;-56
2024/01/20 06:18:38;;;;;;;20.13;11.10;;;-0.60;62.40;;;-6.19;100.00;96468.69;4925754;29;20038;-55
2024/01/20 06:21:04;;;;;;;19.80;11.23;;;-0.60;62.40;;;-6.16;100.00;96468.41;4933051;29;20482;-54
2024/01/20 06:23:30;;;;;;;21.55;10.70;;;-0.60;62.40;;;-6.20;100.00;96470.47;4926090;28;20031;-55
2024/01/20 06:25:56;;;;;;;18.83;10.60;;;-0.50;62.40;;;-6.12;100.00;96477.53;4926217;29;20505;-54
2024/01/20 06:28:23;;;;;;;19.20;10.95;;;-0.50;62.30;;;-6.07;100.00;96476.16;4932872;28;20031;-54
2024/01/20 06:30:51;;;;;;;19.25;10.40;;;-0.50;62.30;;;-6.07;100.00;96480.53;4924613;28;20094;-53
2024/01/20 06:33:17;;;;;;;21.38;9.98;;;-0.40;62.30;;;-6.08;100.00;96479.72;4933377;29;20062;-52
2024/01/20 06:35:43;;;;;;;22.83;11.05;;;-0.40;62.30;;;-6.10;100.00;96473.84;4923729;29;20063;-55
2024/01/20 06:38:09;;;;;;;23.73;10.57;;;-0.40;62.20;;;-6.09;100.00;96480.66;4930653;29;20498;-54
2024/01/20 06:40:34;;;;;;;26.67;13.73;;;-0.40;62.20;;;-6.19;100.00;96484.25;4927446;29;20027;-53
2024/01/20 06:43:00;;;;;;;17.08;9.68;;;-0.40;62.10;;;-6.33;100.00;96481.13;4926298;29;20039;-53
2024/01/20 06:45:33;;;;;;;23.33;10.98;;;-0.40;62.00;;;-6.23;100.00;96485.50;4926808;29;20035;-54
2024/01/20 06:48:01;;;;;;;18.52;9.98;;;-0.50;62.00;;;-6.17;100.00;96488.34;4934765;28;20471;-56
2024/01/20 06:50:27;;;;;;;22.25;10.52;;;-0.50;62.10;;;-6.24;100.00;96482.06;4929646;28;20051;-55
2024/01/20 06:52:53;;;;;;;20.88;10.65;;;-0.40;62.10;;;-6.39;100.00;96484.25;4924328;29;20118;-53
2024/01/20 06:55:18;;;;;;;19.23;10.13;;;-0.50;62.10;;;-6.44;100.00;96483.84;4925823;29;20461;-53
2024/01/20 06:57:44;;;;;;;19.13;10.45;;;-0.50;62.10;;;-6.48;100.00;96481.69;4924327;29;20382;-52
2024/01/20 07:00:11;;;;;;;19.30;10.40;;;-0.60;61.90;;;-6.41;100.00;96485.34;4923747;29;20125;-53
2024/01/20 07:02:37;;;;;;;21.02;11.15;;;-0.60;61.90;;;-6.47;100.00;96478.94;4923059;29;20035;-53
2024/01/20 07:05:03;;;;;;;20.98;11.77;;;-0.60;61.90;;;-6.57;100.00;96478.94;4921922;29;20024;-56
2024/01/20 07:07:29;;;;;;;19.02;10.10;;;-0.70;61.90;;;-6.58;100.00;96476.47;4927110;29;20035;-57
2024/01/20 07:09:55;;;;;;;20.70;11.52;;;-0.70;61.90;;;-6.60;100.00;96478.41;4927149;29;20491;-57
2024/01/20 07:12:21;;;;;;;20.00;10.82;;;-0.80;61.80;;;-6.59;100.00;96474.84;4924736;28;20027;-54
2024/01/20 07:14:48;;;;;;;21.75;11.50;;;-0.80;61.80;;;-6.60;100.00;96483.59;4922783;29;20034;-54
2024/01/20 07:17:14;;;;;;;19.30;10.68;;;-0.80;61.90;;;-6.55;100.00;96484.81;4929145;29;20532;-51
2024/01/20 07:19:40;;;;;;;23.67;11.82;;;-0.80;62.00;;;-6.61;100.00;96489.69;4924174;29;20058;-55
2024/01/20 07:22:05;;;;;;;18.35;10.57;;;-0.80;62.10;;;-6.57;100.00;96478.13;4954647;23;20465;-52
2024/01/20 07:24:31;;;;;;;17.60;10.98;;;-0.80;62.10;;;-6.50;100.00;96473.22;4952058;28;20519;-56
2024/01/20 07:26:57;;;;;;;21.42;11.18;;;-0.80;62.10;;;-6.55;100.00;96471.00;4957394;28;20381;-54
2024/01/20 07:29:23;;;;;;;20.20;11.57;;;-0.80;62.20;;;-6.52;100.00;96474.19;4953111;28;20477;-56
2024/01/20 07:31:50;;;;;;;19.75;11.25;;;-0.80;62.20;;;-6.54;100.00;96477.84;4963458;28;20057;-54
2024/01/20 07:34:16;;;;;;;20.00;10.95;;;-0.80;62.10;;;-6.55;100.00;96481.38;4975969;28;20022;-55
2024/01/20 07:36:42;;;;;;;26.08;11.60;;;-0.70;62.10;;;-6.50;100.00;96483.59;4970187;28;20034;-52
2024/01/20 07:39:08;;;;;;;22.05;12.05;;;-0.70;62.10;;;-6.52;100.00;96496.66;4972579;28;20030;-51
2024/01/20 07:41:34;;;;;;;20.15;10.43;;;-0.70;62.10;;;-6.55;100.00;96504.72;4974708;28;20041;-56
2024/01/20 07:43:59;;;;;;;18.63;10.52;;;-0.60;62.30;;;-6.48;100.00;96513.59;4991566;28;20447;-56
2024/01/20 07:46:25;;;;;;;20.75;10.88;;;-0.60;62.10;;;-6.43;100.00;96510.59;4975102;28;20054;-54
2024/01/20 07:48:51;;;;;;;18.75;10.18;;;-0.50;62.10;;;-6.50;100.00;96522.47;4973193;28;20038;-51
2024/01/20 07:51:17;;;;;;;18.52;10.25;;;-0.50;62.00;;;-6.54;100.00;96521.91;4970058;28;20508;-55
2024/01/20 07:53:43;;;;;;;18.58;10.77;;;-0.40;61.90;;;-6.51;100.00;96529.44;4977357;28;20494;-55
2024/01/20 07:56:11;;;;;;;17.55;10.57;;;-0.40;61.70;;;-6.57;100.00;96532.56;4969614;28;20085;-54
2024/01/20 07:58:36;;;;;;;18.70;10.13;;;-0.30;61.60;;;-6.48;100.00;96534.34;4977874;28;20101;-54
2024/01/20 08:01:03;;;;;;;20.25;10.27;;;-0.30;61.50;;;-6.52;100.00;96527.78;4970621;28;20571;-55
2024/01/20 08:03:28;;;;;;;22.35;10.95;;;-0.30;61.40;;;-6.40;100.00;96531.88;4978695;28;20049;-51
2024/01/20 08:05:54;;;;;;;19.65;10.10;;;-0.20;61.30;;;-6.37;100.00;96529.00;4973071;28;20053;-56
2024/01/20 08:08:20;;;;;;;16.05;9.32;;;-0.20;61.20;;;-6.61;100.00;96529.41;4974173;28;20366;-54
2024/01/20 08:10:46;;;;;;;18.67;10.07;;;-0.10;61.10;;;-6.49;100.00;96534.47;4973939;28;20022;-54
2024/01/20 08:13:12;;;;;;;25.38;9.80;;;-0.10;60.90;;;-6.66;100.00;96533.38;4972981;28;20021;-52
2024/01/20 08:15:38;;;;;;;17.85;9.82;;;-0.10;60.70;;;-6.59;100.00;96530.09;4975422;28;20137;-55
2024/01/20 08:18:04;;;;;;;17.15;10.65;;;-0.10;60.60;;;-6.58;100.00;96538.69;4977778;28;20105;-56
2024/01/20 08:20:30;;;;;;;26.65;10.77;;;-0.10;60.60;;;-6.38;100.00;96539.53;4974785;28;20030;-53
2024/01/20 08:22:57;;;;;;;16.40;9.45;;;0.00;60.70;;;-6.32;100.00;96549.38;4969899;28;20050;-55
2024/01/20 08:25:23;;;;;;;17.15;9.15;;;0.30;60.70;;;-6.15;100.00;96560.81;4967321;28;20244;-51
2024/01/20 08:27:48;;;;;;;15.93;9.00;;;0.60;60.70;;;-6.10;100.00;96563.84;4966986;28;20034;-50
2024/01/20 08:30:15;;;;;;;18.70;9.25;;;0.90;60.50;;;-5.77;100.00;96554.75;4968000;28;20460;-54
2024/01/20 08:32:41;;;;;;;15.55;9.15;;;1.20;60.20;;;-5.79;100.00;96553.25;4982733;28;20025;-53
2024/01/20 08:35:08;;;;;;;15.05;8.80;;;1.50;59.80;;;-5.90;100.00;96562.00;4969389;28;20022;-54
2024/01/20 08:37:34;;;;;;;16.15;9.45;;;1.80;59.60;;;-5.69;100.00;96565.25;4971765;28;20113;-56
2024/01/20 08:40:00;;;;;;;19.55;8.73;;;2.00;59.20;;;-5.67;100.00;96563.34;4969820;28;20113;-53
2024/01/20 08:42:26;;;;;;;14.63;8.52;;;2.10;58.90;;;-5.40;100.00;96570.38;4967555;28;20081;-55
2024/01/20 08:44:52;;;;;;;16.13;8.52;;;2.20;58.70;;;-5.16;100.00;96579.47;4969834;28;20100;-55
2024/01/20 08:47:18;;;;;;;12.70;8.15;;;2.30;58.50;;;-5.06;100.00;96575.03;4969269;28;20030;-50
2024/01/20 08:49:44;;;;;;;14.07;8.18;;;2.40;58.40;;;-5.02;100.00;96573.78;4969406;28;20105;-52
2024/01/20 08:52:10;;;;;;;13.10;8.38;;;2.40;58.20;;;-4.95;100.00;96574.88;4969033;28;20029;-56
2024/01/20 08:54:37;;;;;;;13.32;8.38;;;2.50;58.20;;;-5.00;100.00;96584.88;4984710;28;20026;-55
2024/01/20 08:57:03;;;;;;;14.43;8.32;;;2.60;57.90;;;-5.17;100.00;96596.00;4968240;28;20022;-52
2024/01/20 08:59:29;;;;;;;12.45;8.02;;;2.60;57.60;;;-5.12;100.00;96599.00;4984624;28;20120;-57
2024/01/20 09:01:55;;;;;;;14.27;7.78;;;2.70;57.40;;;-4.92;100.00;96600.59;4967304;28;20105;-52
2024/01/20 09:04:20;;;;;;;12.35;7.72;;;2.70;57.30;;;-5.18;98.65;96595.19;4973299;28;20029;-55
2024/01/20 09:06:46;;;;;;;13.10;7.65;;;2.80;57.20;;;-5.52;100.00;96600.06;4971176;28;20389;-54
2024/01/20 09:09:12;;;;;;;14.65;7.50;;;2.80;56.90;;;-5.29;100.00;96594.56;4973231;28;20395;-55
2024/01/20 09:11:38;;;;;;;13.45;8.00;;;2.80;56.80;;;-5.38;100.00;96596.22;4971110;28;20241;-54
2024/01/20 09:14:05;;;;;;;14.60;8.52;;;2.90;56.60;;;-5.44;100.00;96595.00;4974063;28;20409;-53
2024/01/20 09:16:31;;;;;;;11.30;7.85;;;3.00;56.40;;;-5.06;100.00;96603.63;4972363;28;20018;-53
2024/01/20 09:18:58;;;;;;;13.68;7.55;;;3.00;56.40;;;-5.22;99.69;96606.81;4970838;28;20044;-53
2024/01/20 09:21:24;;;;;;;15.38;7.80;;;3.10;56.40;;;-5.04;100.00;96613.91;4976662;28;20048;-53
2024/01/20 09:23:51;;;;;;;13.02;7.15;;;3.10;56.30;;;-5.00;99.00;96621.25;4976792;28;20026;-53
2024/01/20 09:26:17;;;;;;;13.05;7.07;;;3.10;56.40;;;-4.99;98.65;96612.47;4981465;28;20022;-56
2024/01/20 09:28:43;;;;;;;11.05;7.38;;;3.20;56.50;;;-4.97;99.21;96609.75;4974965;28;20081;-50
2024/01/20 09:31:09;;;;;;;11.63;7.82;;;3.20;56.20;;;-5.10;99.26;96614.47;4973199;28;20113;-50
2024/01/20 09:33:35;;;;;;;16.15;8.10;;;3.20;56.10;;;-5.21;100.00;96618.84;4973411;28;20165;-54
2024/01/20 09:36:02;;;;;;;10.88;7.47;;;3.20;55.90;;;-5.29;100.00;96621.34;4975000;28;20020;-55
2024/01/20 09:38:29;;;;;;;13.65;7.65;;;3.20;55.80;;;-4.97;100.00;96625.34;4975340;28;20026;-56
2024/01/20 09:40:59;;;;;;;12.40;7.65;;;3.20;55.80;;;-4.94;98.77;96625.88;4980094;28;20028;-54
2024/01/20 09:43:25;;;;;;;10.00;6.85;;;3.30;56.00;;;-4.96;99.34;96632.19;4971480;28;20387;-52
2024/01/20 09:45:53;;;;;;;11.25;7.75;;;3.30;55.90;;;-4.92;100.00;96618.78;4976876;28;20029;-54
2024/01/20 09:48:19;;;;;;;11.40;6.97;;;3.50;55.70;;;-5.16;98.56;96623.63;4975549;28;20034;-53
2024/01/20 09:50:46;;;;;;;10.57;7.43;;;3.60;55.60;;;-4.68;99.89;96633.03;4977800;28;20029;-55
2024/01/20 09:53:17;;;;;;;10.85;7.05;;;3.70;55.40;;;-4.37;96.62;96625.75;4973637;28;20378;-56
2024/01/20 09:55:46;;;;;;;12.15;7.43;;;4.00;55.50;;;-3.94;95.74;96628.63;4978467;28;20033;-53
2024/01/20 09:58:15;;;;;;;11.60;7.85;;;4.40;55.30;;;-4.27;96.17;96634.31;4974025;28;20033;-55